sensor_id;sensor_type;location;lat;lon;timestamp;pressure;altitude;pressure_sealevel;temperature;humidity
73338;BME280;61575;49.908;35.556;2023-01-28T00:01:40;99585.31;;;-6.42;80.48
73338;BME280;61575;49.908;35.556;2023-01-28T00:04:41;99581.06;;;-6.45;80.07
73338;BME280;61575;49.908;35.556;2023-01-28T00:07:47;99586.53;;;-6.51;80.23
73338;BME280;61575;49.908;35.556;2023-01-28T00:10:49;99576.94;;;-6.50;80.47
73338;BME280;61575;49.908;35.556;2023-01-28T00:13:52;99582.22;;;-6.52;80.44
73338;BME280;61575;49.908;35.556;2023-01-28T00:16:54;99573.53;;;-6.52;80.52
73338;BME280;61575;49.908;35.556;2023-01-28T00:19:56;99572.06;;;-6.59;80.31
73338;BME280;61575;49.908;35.556;2023-01-28T00:22:59;99567.88;;;-6.63;81.06
73338;BME280;61575;49.908;35.556;2023-01-28T00:26:05;99570.63;;;-6.67;80.83
73338;BME280;61575;49.908;35.556;2023-01-28T00:29:07;99580.28;;;-6.69;80.38
73338;BME280;61575;49.908;35.556;2023-01-28T00:32:10;99578.69;;;-6.73;80.93
73338;BME280;61575;49.908;35.556;2023-01-28T00:35:12;99585.75;;;-6.75;80.84
73338;BME280;61575;49.908;35.556;2023-01-28T00:38:15;99590.16;;;-6.77;81.02
73338;BME280;61575;49.908;35.556;2023-01-28T00:41:18;99584.88;;;-6.75;81.11
73338;BME280;61575;49.908;35.556;2023-01-28T00:44:24;99571.16;;;-6.80;81.04
73338;BME280;61575;49.908;35.556;2023-01-28T00:47:26;99582.56;;;-6.83;81.11
73338;BME280;61575;49.908;35.556;2023-01-28T00:50:28;99568.78;;;-6.86;81.15
73338;BME280;61575;49.908;35.556;2023-01-28T00:53:30;99570.31;;;-6.81;80.65
73338;BME280;61575;49.908;35.556;2023-01-28T00:56:32;99578.31;;;-6.85;80.54
73338;BME280;61575;49.908;35.556;2023-01-28T00:59:34;99566.25;;;-6.88;80.71
73338;BME280;61575;49.908;35.556;2023-01-28T01:02:38;99555.13;;;-6.93;81.08
73338;BME280;61575;49.908;35.556;2023-01-28T01:05:42;99560.28;;;-6.91;81.08
73338;BME280;61575;49.908;35.556;2023-01-28T01:08:44;99556.84;;;-6.92;80.82
73338;BME280;61575;49.908;35.556;2023-01-28T01:11:51;99562.13;;;-6.93;80.88
73338;BME280;61575;49.908;35.556;2023-01-28T01:14:53;99548.31;;;-6.97;80.89
73338;BME280;61575;49.908;35.556;2023-01-28T01:17:56;99543.25;;;-7.00;81.07
73338;BME280;61575;49.908;35.556;2023-01-28T01:20:59;99556.44;;;-7.03;80.53
73338;BME280;61575;49.908;35.556;2023-01-28T01:24:02;99557.41;;;-7.06;80.93
73338;BME280;61575;49.908;35.556;2023-01-28T01:27:04;99550.47;;;-7.07;80.93
73338;BME280;61575;49.908;35.556;2023-01-28T01:30:08;99545.13;;;-7.04;80.81
73338;BME280;61575;49.908;35.556;2023-01-28T01:33:10;99546.09;;;-7.06;80.93
73338;BME280;61575;49.908;35.556;2023-01-28T01:36:13;99541.84;;;-7.09;80.50
73338;BME280;61575;49.908;35.556;2023-01-28T01:39:16;99534.22;;;-7.13;80.52
73338;BME280;61575;49.908;35.556;2023-01-28T01:42:19;99536.81;;;-7.13;80.47
73338;BME280;61575;49.908;35.556;2023-01-28T01:45:24;99537.84;;;-7.17;80.82
73338;BME280;61575;49.908;35.556;2023-01-28T01:48:33;99539.66;;;-7.19;80.72
73338;BME280;61575;49.908;35.556;2023-01-28T01:51:36;99536.13;;;-7.18;80.41
73338;BME280;61575;49.908;35.556;2023-01-28T01:54:40;99542.31;;;-7.21;80.59
73338;BME280;61575;49.908;35.556;2023-01-28T01:57:44;99533.75;;;-7.24;80.76
73338;BME280;61575;49.908;35.556;2023-01-28T02:00:48;99539.91;;;-7.25;80.64
73338;BME280;61575;49.908;35.556;2023-01-28T02:04:06;99538.13;;;-7.25;81.00
73338;BME280;61575;49.908;35.556;2023-01-28T02:07:12;99525.03;;;-7.23;80.63
73338;BME280;61575;49.908;35.556;2023-01-28T02:10:15;99524.13;;;-7.22;80.50
73338;BME280;61575;49.908;35.556;2023-01-28T02:13:20;99520.72;;;-7.24;80.12
73338;BME280;61575;49.908;35.556;2023-01-28T02:16:23;99516.47;;;-7.27;80.40
73338;BME280;61575;49.908;35.556;2023-01-28T02:19:40;99510.59;;;-7.32;80.24
73338;BME280;61575;49.908;35.556;2023-01-28T02:29:58;99512.06;;;-7.48;80.36
73338;BME280;61575;49.908;35.556;2023-01-28T02:33:04;99502.47;;;-7.48;80.78
73338;BME280;61575;49.908;35.556;2023-01-28T02:36:27;99501.63;;;-7.48;80.27
73338;BME280;61575;49.908;35.556;2023-01-28T02:39:39;99500.97;;;-7.53;80.13
73338;BME280;61575;49.908;35.556;2023-01-28T02:42:42;99498.47;;;-7.56;80.24
73338;BME280;61575;49.908;35.556;2023-01-28T02:45:44;99495.19;;;-7.61;80.20
73338;BME280;61575;49.908;35.556;2023-01-28T02:49:11;99490.03;;;-7.63;80.48
73338;BME280;61575;49.908;35.556;2023-01-28T02:55:40;99480.66;;;-7.69;80.43
73338;BME280;61575;49.908;35.556;2023-01-28T03:02:37;99486.16;;;-7.76;80.16
73338;BME280;61575;49.908;35.556;2023-01-28T03:05:49;99488.78;;;-7.76;80.29
73338;BME280;61575;49.908;35.556;2023-01-28T03:09:09;99486.28;;;-7.79;80.41
73338;BME280;61575;49.908;35.556;2023-01-28T03:12:27;99489.06;;;-7.84;80.30
73338;BME280;61575;49.908;35.556;2023-01-28T03:15:49;99487.41;;;-7.86;80.41
73338;BME280;61575;49.908;35.556;2023-01-28T03:19:11;99485.59;;;-7.84;80.72
73338;BME280;61575;49.908;35.556;2023-01-28T03:22:36;99491.72;;;-7.85;80.12
73338;BME280;61575;49.908;35.556;2023-01-28T03:26:00;99493.38;;;-7.83;80.04
73338;BME280;61575;49.908;35.556;2023-01-28T03:29:24;99499.38;;;-7.81;80.02
73338;BME280;61575;49.908;35.556;2023-01-28T03:32:49;99502.88;;;-7.82;80.08
73338;BME280;61575;49.908;35.556;2023-01-28T03:36:10;99508.09;;;-7.82;79.81
73338;BME280;61575;49.908;35.556;2023-01-28T03:39:31;99499.75;;;-7.91;79.94
73338;BME280;61575;49.908;35.556;2023-01-28T03:42:33;99503.28;;;-7.92;79.80
73338;BME280;61575;49.908;35.556;2023-01-28T03:45:57;99498.28;;;-7.99;80.01
73338;BME280;61575;49.908;35.556;2023-01-28T03:49:01;99507.16;;;-8.04;79.75
73338;BME280;61575;49.908;35.556;2023-01-28T03:52:03;99505.50;;;-8.07;79.55
73338;BME280;61575;49.908;35.556;2023-01-28T03:55:05;99503.97;;;-8.12;80.23
73338;BME280;61575;49.908;35.556;2023-01-28T03:58:16;99509.19;;;-8.12;80.04
73338;BME280;61575;49.908;35.556;2023-01-28T04:01:19;99498.72;;;-8.11;79.81
73338;BME280;61575;49.908;35.556;2023-01-28T04:04:22;99500.63;;;-8.16;79.56
73338;BME280;61575;49.908;35.556;2023-01-28T04:07:27;99481.75;;;-8.22;80.00
73338;BME280;61575;49.908;35.556;2023-01-28T04:10:46;99486.13;;;-8.23;80.05
73338;BME280;61575;49.908;35.556;2023-01-28T04:14:03;99478.34;;;-8.24;80.04
73338;BME280;61575;49.908;35.556;2023-01-28T04:17:28;99471.56;;;-8.29;80.19
73338;BME280;61575;49.908;35.556;2023-01-28T04:20:31;99474.22;;;-8.30;79.79
73338;BME280;61575;49.908;35.556;2023-01-28T04:23:35;99474.31;;;-8.33;79.75
73338;BME280;61575;49.908;35.556;2023-01-28T04:26:37;99484.75;;;-8.33;79.86
73338;BME280;61575;49.908;35.556;2023-01-28T04:29:40;99493.44;;;-8.34;79.76
73338;BME280;61575;49.908;35.556;2023-01-28T04:33:04;99489.94;;;-8.33;79.91
73338;BME280;61575;49.908;35.556;2023-01-28T04:36:16;99493.50;;;-8.36;79.62
73338;BME280;61575;49.908;35.556;2023-01-28T04:39:40;99485.69;;;-8.36;79.56
73338;BME280;61575;49.908;35.556;2023-01-28T04:42:53;99482.34;;;-8.39;79.48
73338;BME280;61575;49.908;35.556;2023-01-28T04:46:05;99485.81;;;-8.39;79.77
73338;BME280;61575;49.908;35.556;2023-01-28T04:49:14;99492.88;;;-8.42;79.75
73338;BME280;61575;49.908;35.556;2023-01-28T04:52:19;99489.38;;;-8.41;79.95
73338;BME280;61575;49.908;35.556;2023-01-28T04:55:39;99492.81;;;-8.41;79.86
73338;BME280;61575;49.908;35.556;2023-01-28T04:58:41;99493.78;;;-8.43;79.80
73338;BME280;61575;49.908;35.556;2023-01-28T05:01:48;99497.38;;;-8.47;80.04
73338;BME280;61575;49.908;35.556;2023-01-28T05:04:51;99505.13;;;-8.46;80.10
73338;BME280;61575;49.908;35.556;2023-01-28T05:08:11;99500.88;;;-8.48;79.83
73338;BME280;61575;49.908;35.556;2023-01-28T05:11:13;99519.00;;;-8.45;80.18
73338;BME280;61575;49.908;35.556;2023-01-28T05:14:15;99521.63;;;-8.45;80.10
73338;BME280;61575;49.908;35.556;2023-01-28T05:17:22;99527.72;;;-8.46;80.08
73338;BME280;61575;49.908;35.556;2023-01-28T05:20:24;99539.78;;;-8.44;80.05
73338;BME280;61575;49.908;35.556;2023-01-28T05:23:28;99536.19;;;-8.40;80.23
73338;BME280;61575;49.908;35.556;2023-01-28T05:26:32;99540.38;;;-8.36;80.02
73338;BME280;61575;49.908;35.556;2023-01-28T05:29:35;99540.34;;;-8.34;79.45
73338;BME280;61575;49.908;35.556;2023-01-28T05:32:37;99533.53;;;-8.38;79.62
73338;BME280;61575;49.908;35.556;2023-01-28T05:35:39;99548.09;;;-8.33;79.65
73338;BME280;61575;49.908;35.556;2023-01-28T05:38:41;99539.44;;;-8.33;79.54
73338;BME280;61575;49.908;35.556;2023-01-28T05:41:43;99540.44;;;-8.37;79.50
73338;BME280;61575;49.908;35.556;2023-01-28T05:44:46;99542.25;;;-8.39;79.96
73338;BME280;61575;49.908;35.556;2023-01-28T05:47:51;99541.38;;;-8.40;79.61
73338;BME280;61575;49.908;35.556;2023-01-28T05:51:00;99543.84;;;-8.35;79.61
73338;BME280;61575;49.908;35.556;2023-01-28T05:54:07;99540.28;;;-8.33;79.52
73338;BME280;61575;49.908;35.556;2023-01-28T05:57:09;99547.34;;;-8.36;79.29
73338;BME280;61575;49.908;35.556;2023-01-28T06:00:12;99546.53;;;-8.38;79.88
73338;BME280;61575;49.908;35.556;2023-01-28T06:03:16;99544.59;;;-8.32;79.82
73338;BME280;61575;49.908;35.556;2023-01-28T06:06:18;99542.72;;;-8.28;80.43
73338;BME280;61575;49.908;35.556;2023-01-28T06:09:20;99546.88;;;-8.22;79.89
73338;BME280;61575;49.908;35.556;2023-01-28T06:12:24;99551.03;;;-8.17;79.79
73338;BME280;61575;49.908;35.556;2023-01-28T06:15:48;99537.91;;;-8.14;80.15
73338;BME280;61575;49.908;35.556;2023-01-28T06:19:11;99541.09;;;-8.06;80.03
73338;BME280;61575;49.908;35.556;2023-01-28T06:22:13;99539.22;;;-8.02;80.12
73338;BME280;61575;49.908;35.556;2023-01-28T06:25:15;99543.59;;;-8.03;80.57
73338;BME280;61575;49.908;35.556;2023-01-28T06:28:17;99547.56;;;-7.92;80.42
73338;BME280;61575;49.908;35.556;2023-01-28T06:31:19;99546.56;;;-7.88;80.52
73338;BME280;61575;49.908;35.556;2023-01-28T06:34:21;99537.84;;;-7.87;80.65
73338;BME280;61575;49.908;35.556;2023-01-28T06:37:23;99542.09;;;-7.85;80.71
73338;BME280;61575;49.908;35.556;2023-01-28T06:40:26;99535.81;;;-7.79;80.46
73338;BME280;61575;49.908;35.556;2023-01-28T06:43:28;99535.53;;;-7.72;81.01
73338;BME280;61575;49.908;35.556;2023-01-28T06:46:31;99530.22;;;-7.69;81.32
73338;BME280;61575;49.908;35.556;2023-01-28T06:49:33;99533.28;;;-7.57;81.11
73338;BME280;61575;49.908;35.556;2023-01-28T06:52:35;99539.16;;;-7.52;81.69
73338;BME280;61575;49.908;35.556;2023-01-28T06:55:37;99546.03;;;-7.50;81.84
73338;BME280;61575;49.908;35.556;2023-01-28T06:58:39;99550.78;;;-7.38;81.89
73338;BME280;61575;49.908;35.556;2023-01-28T07:01:41;99542.78;;;-7.33;81.91
73338;BME280;61575;49.908;35.556;2023-01-28T07:04:43;99539.09;;;-7.27;82.22
73338;BME280;61575;49.908;35.556;2023-01-28T07:07:45;99551.69;;;-7.15;82.50
73338;BME280;61575;49.908;35.556;2023-01-28T07:10:47;99548.59;;;-7.03;82.27
73338;BME280;61575;49.908;35.556;2023-01-28T07:13:50;99538.94;;;-7.01;82.34
73338;BME280;61575;49.908;35.556;2023-01-28T07:16:52;99533.72;;;-7.01;81.86
73338;BME280;61575;49.908;35.556;2023-01-28T07:19:54;99530.78;;;-6.93;82.23
73338;BME280;61575;49.908;35.556;2023-01-28T07:22:56;99526.59;;;-6.98;82.51
73338;BME280;61575;49.908;35.556;2023-01-28T07:26:02;99528.06;;;-6.90;82.26
73338;BME280;61575;49.908;35.556;2023-01-28T07:29:04;99528.53;;;-6.81;82.55
73338;BME280;61575;49.908;35.556;2023-01-28T07:32:06;99523.31;;;-6.81;82.34
73338;BME280;61575;49.908;35.556;2023-01-28T07:35:08;99529.28;;;-6.77;82.25
73338;BME280;61575;49.908;35.556;2023-01-28T07:38:10;99507.09;;;-6.67;82.86
73338;BME280;61575;49.908;35.556;2023-01-28T07:41:12;99514.06;;;-6.68;82.16
73338;BME280;61575;49.908;35.556;2023-01-28T07:44:14;99515.78;;;-6.67;82.37
73338;BME280;61575;49.908;35.556;2023-01-28T07:47:16;99508.91;;;-6.69;82.31
73338;BME280;61575;49.908;35.556;2023-01-28T07:50:20;99518.63;;;-6.73;82.50
73338;BME280;61575;49.908;35.556;2023-01-28T07:53:22;99529.94;;;-6.72;82.78
73338;BME280;61575;49.908;35.556;2023-01-28T07:56:24;99531.75;;;-6.74;83.27
73338;BME280;61575;49.908;35.556;2023-01-28T07:59:27;99528.91;;;-6.68;82.86
73338;BME280;61575;49.908;35.556;2023-01-28T08:02:29;99527.25;;;-6.71;82.68
73338;BME280;61575;49.908;35.556;2023-01-28T08:05:44;99513.03;;;-6.63;82.99
73338;BME280;61575;49.908;35.556;2023-01-28T08:08:47;99518.94;;;-6.58;82.89
73338;BME280;61575;49.908;35.556;2023-01-28T08:11:49;99508.94;;;-6.49;82.90
73338;BME280;61575;49.908;35.556;2023-01-28T08:14:51;99504.56;;;-6.48;82.83
73338;BME280;61575;49.908;35.556;2023-01-28T08:17:54;99501.31;;;-6.53;82.70
73338;BME280;61575;49.908;35.556;2023-01-28T08:20:57;99504.50;;;-6.47;83.07
73338;BME280;61575;49.908;35.556;2023-01-28T08:24:00;99497.19;;;-6.39;83.14
73338;BME280;61575;49.908;35.556;2023-01-28T08:27:02;99498.13;;;-6.40;82.57
73338;BME280;61575;49.908;35.556;2023-01-28T08:30:05;99507.59;;;-6.37;82.76
73338;BME280;61575;49.908;35.556;2023-01-28T08:33:09;99506.13;;;-6.24;82.71
73338;BME280;61575;49.908;35.556;2023-01-28T08:36:11;99498.03;;;-6.18;82.06
73338;BME280;61575;49.908;35.556;2023-01-28T08:39:13;99501.22;;;-6.11;81.88
73338;BME280;61575;49.908;35.556;2023-01-28T08:42:16;99510.56;;;-6.26;nan
73338;BME280;61575;49.908;35.556;2023-01-28T08:45:19;99509.47;;;-6.20;81.93
73338;BME280;61575;49.908;35.556;2023-01-28T08:48:28;99506.66;;;-6.16;81.65
73338;BME280;61575;49.908;35.556;2023-01-28T08:51:30;99505.59;;;-6.12;81.25
73338;BME280;61575;49.908;35.556;2023-01-28T08:54:32;99505.00;;;-6.18;81.23
73338;BME280;61575;49.908;35.556;2023-01-28T08:57:34;99505.78;;;-6.16;81.75
73338;BME280;61575;49.908;35.556;2023-01-28T09:00:37;99496.25;;;-6.17;81.23
73338;BME280;61575;49.908;35.556;2023-01-28T09:03:39;99488.94;;;-6.09;81.64
73338;BME280;61575;49.908;35.556;2023-01-28T09:06:41;99490.31;;;-6.01;81.21
73338;BME280;61575;49.908;35.556;2023-01-28T09:09:43;99497.81;;;-5.93;80.92
73338;BME280;61575;49.908;35.556;2023-01-28T09:12:45;99494.16;;;-6.09;80.62
73338;BME280;61575;49.908;35.556;2023-01-28T09:15:48;99500.03;;;-6.04;81.02
73338;BME280;61575;49.908;35.556;2023-01-28T09:18:52;99491.34;;;-6.05;80.98
73338;BME280;61575;49.908;35.556;2023-01-28T09:21:54;99490.16;;;-5.97;80.94
73338;BME280;61575;49.908;35.556;2023-01-28T09:24:56;99491.94;;;-5.98;81.14
73338;BME280;61575;49.908;35.556;2023-01-28T09:27:58;99489.56;;;-5.84;81.00
73338;BME280;61575;49.908;35.556;2023-01-28T09:31:18;99492.88;;;-5.80;80.88
73338;BME280;61575;49.908;35.556;2023-01-28T09:34:20;99490.97;;;-5.77;81.01
73338;BME280;61575;49.908;35.556;2023-01-28T09:37:22;99494.31;;;-5.73;80.63
73338;BME280;61575;49.908;35.556;2023-01-28T09:44:19;99490.78;;;-5.53;80.74
73338;BME280;61575;49.908;35.556;2023-01-28T09:47:03;99484.72;;;-5.54;80.65
73338;BME280;61575;49.908;35.556;2023-01-28T09:50:14;99476.66;;;-5.49;80.74
73338;BME280;61575;49.908;35.556;2023-01-28T09:53:20;99478.78;;;-5.39;80.60
73338;BME280;61575;49.908;35.556;2023-01-28T09:56:26;99468.38;;;-5.40;80.66
73338;BME280;61575;49.908;35.556;2023-01-28T09:59:33;99462.84;;;-5.34;81.01
73338;BME280;61575;49.908;35.556;2023-01-28T10:06:17;99469.28;;;-5.22;80.93
73338;BME280;61575;49.908;35.556;2023-01-28T10:13:23;99460.16;;;-5.14;79.89
73338;BME280;61575;49.908;35.556;2023-01-28T10:16:54;99458.94;;;-5.07;80.94
73338;BME280;61575;49.908;35.556;2023-01-28T10:20:19;99454.25;;;-5.00;80.61
73338;BME280;61575;49.908;35.556;2023-01-28T10:26:34;99441.78;;;-4.95;80.72
73338;BME280;61575;49.908;35.556;2023-01-28T10:29:37;99443.09;;;-4.86;80.76
73338;BME280;61575;49.908;35.556;2023-01-28T10:32:45;99440.88;;;-4.77;80.78
73338;BME280;61575;49.908;35.556;2023-01-28T10:35:53;99441.66;;;-4.75;80.50
73338;BME280;61575;49.908;35.556;2023-01-28T10:38:55;99437.25;;;-4.74;80.61
73338;BME280;61575;49.908;35.556;2023-01-28T10:41:57;99437.09;;;-4.71;80.98
73338;BME280;61575;49.908;35.556;2023-01-28T10:45:24;99436.34;;;-4.73;80.40
73338;BME280;61575;49.908;35.556;2023-01-28T10:48:27;99439.03;;;-4.75;80.76
73338;BME280;61575;49.908;35.556;2023-01-28T10:51:40;99439.50;;;-4.66;81.32
73338;BME280;61575;49.908;35.556;2023-01-28T10:54:43;99433.03;;;-4.59;81.60
73338;BME280;61575;49.908;35.556;2023-01-28T10:57:45;99426.16;;;-4.62;81.19
73338;BME280;61575;49.908;35.556;2023-01-28T11:01:13;99427.31;;;-4.50;81.99
73338;BME280;61575;49.908;35.556;2023-01-28T11:04:17;99416.75;;;-4.49;81.71
73338;BME280;61575;49.908;35.556;2023-01-28T11:07:20;99413.66;;;-4.40;81.77
73338;BME280;61575;49.908;35.556;2023-01-28T11:10:34;99410.66;;;-4.32;82.48
73338;BME280;61575;49.908;35.556;2023-01-28T11:13:48;99408.19;;;-4.35;82.24
73338;BME280;61575;49.908;35.556;2023-01-28T11:16:52;99409.72;;;-4.31;82.46
73338;BME280;61575;49.908;35.556;2023-01-28T11:19:57;99405.19;;;-4.27;82.39
73338;BME280;61575;49.908;35.556;2023-01-28T11:23:01;99404.25;;;-4.26;82.94
73338;BME280;61575;49.908;35.556;2023-01-28T11:29:31;99395.53;;;-4.27;83.79
73338;BME280;61575;49.908;35.556;2023-01-28T11:32:34;99387.34;;;-4.21;83.76
73338;BME280;61575;49.908;35.556;2023-01-28T11:35:36;99386.19;;;-4.15;83.96
73338;BME280;61575;49.908;35.556;2023-01-28T11:38:47;99396.59;;;-4.14;83.86
73338;BME280;61575;49.908;35.556;2023-01-28T11:41:51;99396.25;;;-4.08;84.27
73338;BME280;61575;49.908;35.556;2023-01-28T11:44:53;99393.31;;;-4.01;84.12
73338;BME280;61575;49.908;35.556;2023-01-28T11:58:49;99381.88;;;-4.16;85.02
73338;BME280;61575;49.908;35.556;2023-01-28T12:08:31;99372.09;;;-3.97;85.32
73338;BME280;61575;49.908;35.556;2023-01-28T12:18:48;99364.13;;;-3.95;85.21
73338;BME280;61575;49.908;35.556;2023-01-28T12:22:23;99368.38;;;-3.93;85.83
73338;BME280;61575;49.908;35.556;2023-01-28T12:26:01;99373.19;;;-3.85;85.46
73338;BME280;61575;49.908;35.556;2023-01-28T12:46:54;99360.53;;;-3.61;85.22
73338;BME280;61575;49.908;35.556;2023-01-28T12:50:10;99364.16;;;-3.64;85.10
73338;BME280;61575;49.908;35.556;2023-01-28T12:53:25;99359.50;;;-3.59;85.36
73338;BME280;61575;49.908;35.556;2023-01-28T12:56:39;99366.38;;;-3.56;84.53
73338;BME280;61575;49.908;35.556;2023-01-28T13:06:40;99369.56;;;-3.51;84.73
73338;BME280;61575;49.908;35.556;2023-01-28T13:09:51;99365.16;;;-3.51;84.68
73338;BME280;61575;49.908;35.556;2023-01-28T13:12:55;99367.72;;;-3.49;84.66
73338;BME280;61575;49.908;35.556;2023-01-28T13:15:58;99368.66;;;-3.50;84.06
73338;BME280;61575;49.908;35.556;2023-01-28T13:19:35;99371.94;;;-3.47;84.30
73338;BME280;61575;49.908;35.556;2023-01-28T13:22:33;99373.38;;;-3.41;84.09
73338;BME280;61575;49.908;35.556;2023-01-28T13:25:47;99363.72;;;-3.41;84.12
73338;BME280;61575;49.908;35.556;2023-01-28T13:28:51;99369.75;;;-3.39;84.18
73338;BME280;61575;49.908;35.556;2023-01-28T13:31:55;99363.63;;;-3.39;84.20
73338;BME280;61575;49.908;35.556;2023-01-28T13:35:00;99374.66;;;-3.32;84.40
73338;BME280;61575;49.908;35.556;2023-01-28T13:38:12;99369.41;;;-3.32;84.04
73338;BME280;61575;49.908;35.556;2023-01-28T13:41:16;99362.88;;;-3.25;84.23
73338;BME280;61575;49.908;35.556;2023-01-28T13:47:30;99359.03;;;-3.20;83.70
73338;BME280;61575;49.908;35.556;2023-01-28T13:50:39;99352.00;;;-3.19;84.16
73338;BME280;61575;49.908;35.556;2023-01-28T13:53:55;99344.31;;;-3.22;84.14
73338;BME280;61575;49.908;35.556;2023-01-28T14:10:14;99354.97;;;-3.10;83.73
73338;BME280;61575;49.908;35.556;2023-01-28T14:16:46;99352.78;;;-3.17;83.80
73338;BME280;61575;49.908;35.556;2023-01-28T14:19:53;99356.06;;;-3.14;83.35
73338;BME280;61575;49.908;35.556;2023-01-28T14:23:00;99365.53;;;-3.11;83.35
73338;BME280;61575;49.908;35.556;2023-01-28T14:26:23;99361.06;;;-3.09;82.91
73338;BME280;61575;49.908;35.556;2023-01-28T14:32:45;99361.75;;;-3.21;82.62
73338;BME280;61575;49.908;35.556;2023-01-28T14:35:48;99358.50;;;-3.11;83.19
73338;BME280;61575;49.908;35.556;2023-01-28T14:38:50;99362.84;;;-3.10;83.00
73338;BME280;61575;49.908;35.556;2023-01-28T14:41:54;99360.13;;;-3.08;82.78
73338;BME280;61575;49.908;35.556;2023-01-28T14:59:32;99374.06;;;-2.92;82.16
73338;BME280;61575;49.908;35.556;2023-01-28T15:02:30;99361.69;;;-2.90;82.63
73338;BME280;61575;49.908;35.556;2023-01-28T15:05:32;99365.81;;;-2.86;82.44
73338;BME280;61575;49.908;35.556;2023-01-28T15:08:34;99358.31;;;-2.92;82.73
73338;BME280;61575;49.908;35.556;2023-01-28T15:11:38;99354.72;;;-2.91;82.74
73338;BME280;61575;49.908;35.556;2023-01-28T15:14:42;99357.38;;;-2.91;82.72
73338;BME280;61575;49.908;35.556;2023-01-28T15:17:46;99356.81;;;-2.82;82.49
73338;BME280;61575;49.908;35.556;2023-01-28T15:20:51;99366.41;;;-2.81;82.54
73338;BME280;61575;49.908;35.556;2023-01-28T15:23:56;99364.53;;;-2.79;82.34
73338;BME280;61575;49.908;35.556;2023-01-28T15:26:59;99367.75;;;-2.74;82.73
73338;BME280;61575;49.908;35.556;2023-01-28T15:30:02;99371.03;;;-2.70;82.37
73338;BME280;61575;49.908;35.556;2023-01-28T15:33:12;99368.22;;;-2.67;82.53
73338;BME280;61575;49.908;35.556;2023-01-28T15:36:15;99370.75;;;-2.65;82.39
73338;BME280;61575;49.908;35.556;2023-01-28T15:39:19;99371.59;;;-2.65;82.40
73338;BME280;61575;49.908;35.556;2023-01-28T15:42:24;99373.78;;;-2.57;82.52
73338;BME280;61575;49.908;35.556;2023-01-28T15:45:30;99378.28;;;-2.59;82.41
73338;BME280;61575;49.908;35.556;2023-01-28T15:48:33;99383.19;;;-2.53;82.34
73338;BME280;61575;49.908;35.556;2023-01-28T15:51:36;99378.09;;;-2.56;82.13
73338;BME280;61575;49.908;35.556;2023-01-28T15:54:43;99384.66;;;-2.63;82.58
73338;BME280;61575;49.908;35.556;2023-01-28T15:57:46;99383.44;;;-2.58;82.54
73338;BME280;61575;49.908;35.556;2023-01-28T16:00:48;99387.31;;;-2.49;82.14
73338;BME280;61575;49.908;35.556;2023-01-28T16:04:06;99385.63;;;-2.50;82.29
73338;BME280;61575;49.908;35.556;2023-01-28T16:07:10;99378.84;;;-2.54;82.12
73338;BME280;61575;49.908;35.556;2023-01-28T16:10:24;99383.75;;;-2.48;82.20
73338;BME280;61575;49.908;35.556;2023-01-28T16:13:30;99385.63;;;-2.50;82.18
73338;BME280;61575;49.908;35.556;2023-01-28T16:16:36;99392.56;;;-2.49;82.16
73338;BME280;61575;49.908;35.556;2023-01-28T16:19:47;99393.31;;;-2.47;82.29
73338;BME280;61575;49.908;35.556;2023-01-28T16:22:53;99388.06;;;-2.47;82.28
73338;BME280;61575;49.908;35.556;2023-01-28T16:26:22;99396.16;;;-2.36;81.96
73338;BME280;61575;49.908;35.556;2023-01-28T16:29:25;99403.75;;;-2.46;82.26
73338;BME280;61575;49.908;35.556;2023-01-28T16:32:37;99392.03;;;-2.40;82.03
73338;BME280;61575;49.908;35.556;2023-01-28T16:35:39;99401.53;;;-2.37;81.81
73338;BME280;61575;49.908;35.556;2023-01-28T16:39:01;99392.50;;;-2.33;81.73
73338;BME280;61575;49.908;35.556;2023-01-28T16:42:03;99396.91;;;-2.34;81.95
73338;BME280;61575;49.908;35.556;2023-01-28T16:45:06;99398.78;;;-2.36;81.95
73338;BME280;61575;49.908;35.556;2023-01-28T16:48:08;99393.34;;;-2.33;82.08
73338;BME280;61575;49.908;35.556;2023-01-28T16:51:15;99389.03;;;-2.34;81.59
73338;BME280;61575;49.908;35.556;2023-01-28T16:54:18;99395.88;;;-2.31;81.61
73338;BME280;61575;49.908;35.556;2023-01-28T16:57:21;99401.06;;;-2.30;81.70
73338;BME280;61575;49.908;35.556;2023-01-28T17:00:25;99402.66;;;-2.27;81.50
73338;BME280;61575;49.908;35.556;2023-01-28T17:03:28;99399.09;;;-2.26;81.36
73338;BME280;61575;49.908;35.556;2023-01-28T17:06:30;99401.34;;;-2.20;81.36
73338;BME280;61575;49.908;35.556;2023-01-28T17:09:31;99398.81;;;-2.22;81.46
73338;BME280;61575;49.908;35.556;2023-01-28T17:12:33;99394.41;;;-2.21;81.44
73338;BME280;61575;49.908;35.556;2023-01-28T17:15:35;99397.78;;;-2.19;81.18
73338;BME280;61575;49.908;35.556;2023-01-28T17:18:37;99401.91;;;-2.15;80.99
73338;BME280;61575;49.908;35.556;2023-01-28T17:21:39;99397.41;;;-2.13;80.68
73338;BME280;61575;49.908;35.556;2023-01-28T17:24:41;99395.63;;;-2.13;80.98
73338;BME280;61575;49.908;35.556;2023-01-28T17:27:43;99392.06;;;-2.12;80.64
73338;BME280;61575;49.908;35.556;2023-01-28T17:30:45;99391.41;;;-2.15;81.04
73338;BME280;61575;49.908;35.556;2023-01-28T17:33:52;99395.81;;;-2.16;80.73
73338;BME280;61575;49.908;35.556;2023-01-28T17:36:55;99391.03;;;-2.09;80.51
73338;BME280;61575;49.908;35.556;2023-01-28T17:39:57;99399.75;;;-2.09;80.93
73338;BME280;61575;49.908;35.556;2023-01-28T17:42:59;99401.38;;;-2.06;80.38
73338;BME280;61575;49.908;35.556;2023-01-28T17:46:09;99408.50;;;-2.08;80.21
73338;BME280;61575;49.908;35.556;2023-01-28T17:49:12;99395.25;;;-2.06;80.18
73338;BME280;61575;49.908;35.556;2023-01-28T17:52:13;99393.56;;;-2.08;79.82
73338;BME280;61575;49.908;35.556;2023-01-28T17:55:15;99400.31;;;-2.03;79.78
73338;BME280;61575;49.908;35.556;2023-01-28T17:58:18;99397.69;;;-2.03;79.57
73338;BME280;61575;49.908;35.556;2023-01-28T18:01:21;99405.69;;;-2.05;79.49
73338;BME280;61575;49.908;35.556;2023-01-28T18:04:23;99398.34;;;-2.00;79.52
73338;BME280;61575;49.908;35.556;2023-01-28T18:07:25;99401.66;;;-1.96;79.41
73338;BME280;61575;49.908;35.556;2023-01-28T18:10:27;99403.53;;;-1.98;79.30
73338;BME280;61575;49.908;35.556;2023-01-28T18:13:30;99404.38;;;-1.98;79.00